Time;durP1;ratioP1;P1;durP2;ratioP2;P2;SDS_P1;SDS_P2;PMS_P1;PMS_P2;Temp;Humidity;BMP_temperature;BMP_pressure;BME280_temperature;BME280_humidity;BME280_pressure;Samples;Min_cycle;Max_cycle;Signal;HPM_P1;HPM_P2
2023/01/16 00:00:02;;;;;;;0.88;0.50;;;;;;;4.27;86.29;99163.16;4928457;28;20955;-78
2023/01/16 00:02:29;;;;;;;4.13;0.75;;;;;;;4.26;85.89;99166.63;4946384;28;20039;-78
2023/01/16 00:04:55;;;;;;;2.10;0.82;;;;;;;4.27;86.25;99158.81;4918516;29;20048;-77
2023/01/16 00:07:22;;;;;;;1.55;0.63;;;;;;;4.33;86.12;99149.28;4938123;28;20157;-77
2023/01/16 00:09:49;;;;;;;1.40;0.35;;;;;;;4.39;85.48;99149.25;4947553;28;20466;-80
2023/01/16 00:12:15;;;;;;;5.13;0.45;;;;;;;4.47;85.01;99155.22;4933317;29;20402;-76
2023/01/16 00:14:41;;;;;;;0.43;0.38;;;;;;;4.51;84.66;99143.97;4934990;29;20039;-76
2023/01/16 00:17:08;;;;;;;2.55;0.63;;;;;;;4.54;84.49;99136.16;4930036;28;20101;-78
2023/01/16 00:19:35;;;;;;;1.85;0.50;;;;;;;4.56;84.02;99123.19;4930729;28;20047;-77
2023/01/16 00:22:01;;;;;;;3.72;0.47;;;;;;;4.62;83.52;99115.38;4929951;28;20051;-78
2023/01/16 00:24:28;;;;;;;1.73;0.60;;;;;;;4.67;83.43;99111.00;4956950;28;20036;-76
2023/01/16 00:26:54;;;;;;;2.70;0.28;;;;;;;4.70;82.95;99102.34;4949370;28;20043;-76
2023/01/16 00:29:21;;;;;;;0.55;0.55;;;;;;;4.76;82.61;99103.13;4933130;28;20093;-78
2023/01/16 00:31:48;;;;;;;0.88;0.60;;;;;;;4.80;81.88;99098.78;4931750;29;20054;-79
2023/01/16 00:34:14;;;;;;;0.90;0.38;;;;;;;4.83;81.73;99090.09;4923345;28;20469;-78
2023/01/16 00:36:41;;;;;;;4.38;0.95;;;;;;;4.79;81.35;99086.69;4925618;29;20058;-78
2023/01/16 00:39:07;;;;;;;1.85;0.47;;;;;;;4.70;81.42;99086.78;4928899;28;20094;-81
2023/01/16 00:41:34;;;;;;;2.55;0.52;;;;;;;4.53;82.04;99084.34;4932858;28;20500;-77
2023/01/16 00:44:01;;;;;;;1.27;0.80;;;;;;;4.42;82.50;99077.53;4929883;28;20102;-78
2023/01/16 00:46:29;;;;;;;2.55;0.60;;;;;;;4.34;83.25;99074.19;4942376;28;20039;-76
2023/01/16 00:48:55;;;;;;;2.47;0.70;;;;;;;4.31;83.27;99081.94;4931944;28;20043;-78
2023/01/16 00:51:22;;;;;;;2.53;0.63;;;;;;;4.24;83.48;99070.78;4944613;28;20039;-81
2023/01/16 00:53:49;;;;;;;2.47;0.60;;;;;;;4.28;83.42;99074.22;4946679;28;20055;-77
2023/01/16 00:56:15;;;;;;;1.45;0.50;;;;;;;4.37;83.06;99087.09;4927699;28;20047;-77
2023/01/16 00:58:42;;;;;;;2.97;0.70;;;;;;;4.51;82.69;99084.38;4913428;28;20419;-78
2023/01/16 01:01:08;;;;;;;4.22;0.50;;;;;;;4.56;82.30;99082.59;4928594;28;21213;-79
2023/01/16 01:03:35;;;;;;;3.97;0.47;;;;;;;4.59;82.50;99089.50;4912801;29;20047;-78
2023/01/16 01:06:11;;;;;;;2.20;0.60;;;;;;;4.60;82.64;99080.81;4944836;28;20039;-77
2023/01/16 01:08:37;;;;;;;3.65;0.47;;;;;;;4.65;82.42;99073.84;4929346;28;20051;-77
2023/01/16 01:11:14;;;;;;;2.60;0.50;;;;;;;4.68;82.20;99080.75;4926824;28;20437;-77
2023/01/16 01:13:41;;;;;;;5.18;0.95;;;;;;;4.70;82.32;99074.66;4918016;29;20066;-77
2023/01/16 01:16:10;;;;;;;1.55;0.70;;;;;;;4.71;82.36;99073.81;4912684;28;20040;-76
2023/01/16 01:18:37;;;;;;;1.75;0.55;;;;;;;4.72;82.40;99082.41;4949115;28;20049;-77
2023/01/16 01:21:04;;;;;;;4.10;1.17;;;;;;;4.74;82.21;99078.94;4926658;28;20050;-77
2023/01/16 01:23:31;;;;;;;1.60;0.60;;;;;;;4.78;81.58;99077.19;4945231;28;20414;-79
2023/01/16 01:25:59;;;;;;;2.67;1.13;;;;;;;4.73;82.20;99072.06;4929261;28;20086;-77
2023/01/16 01:28:26;;;;;;;3.40;1.33;;;;;;;4.67;82.43;99063.47;4941103;28;20039;-76
2023/01/16 01:30:52;;;;;;;1.42;1.20;;;;;;;4.53;83.08;99058.44;4944708;28;20043;-76
2023/01/16 01:33:19;;;;;;;3.25;0.60;;;;;;;4.37;84.12;99060.31;4946325;28;20054;-77
2023/01/16 01:35:45;;;;;;;1.58;0.60;;;;;;;4.22;85.63;99046.63;4909509;28;20055;-77
2023/01/16 01:38:12;;;;;;;1.30;0.40;;;;;;;4.09;87.00;99058.84;4927615;28;20128;-78
2023/01/16 01:40:39;;;;;;;3.13;0.70;;;;;;;3.95;88.21;99042.53;4942835;28;20035;-76
2023/01/16 01:43:14;;;;;;;2.25;0.30;;;;;;;3.85;89.27;99046.94;4944103;28;20043;-76
2023/01/16 01:45:54;;;;;;;1.38;0.47;;;;;;;3.78;90.04;99043.53;4927859;28;20123;-80
2023/01/16 01:48:29;;;;;;;1.00;0.30;;;;;;;3.75;90.39;99037.53;4915489;28;20048;-78
2023/01/16 01:51:05;;;;;;;3.42;0.68;;;;;;;3.70;90.56;99040.13;4925687;29;20035;-79
2023/01/16 01:53:35;;;;;;;3.03;0.30;;;;;;;3.60;91.42;99031.59;4926501;28;20603;-76
2023/01/16 01:56:13;;;;;;;0.65;0.32;;;;;;;3.49;92.02;99025.63;4921906;28;20047;-77
2023/01/16 01:58:40;;;;;;;1.90;0.60;;;;;;;3.36;92.26;99024.81;4938553;28;20054;-78
2023/01/16 02:01:07;;;;;;;2.38;0.68;;;;;;;3.25;93.42;99019.72;4907984;28;20054;-78
2023/01/16 02:03:50;;;;;;;0.63;0.30;;;;;;;3.14;94.49;99006.00;4942091;28;20047;-77
2023/01/16 02:06:26;;;;;;;2.47;0.40;;;;;;;3.07;94.67;99012.06;4922861;28;20055;-78
2023/01/16 02:08:56;;;;;;;2.72;0.38;;;;;;;2.96;95.63;99002.63;4925080;29;20075;-79
2023/01/16 02:11:36;;;;;;;2.65;0.50;;;;;;;2.92;96.12;98995.78;4943388;28;20039;-77
2023/01/16 02:14:09;;;;;;;1.95;0.50;;;;;;;2.92;96.59;99000.06;4930982;28;20138;-77
2023/01/16 02:19:43;;;;;;;0.57;0.25;;;;;;;2.85;97.47;98986.31;4930893;28;21060;-77
2023/01/16 02:22:58;;;;;;;1.88;0.40;;;;;;;2.85;97.52;98978.56;4945440;28;20126;-75
2023/01/16 02:26:02;;;;;;;1.92;0.40;;;;;;;2.81;97.80;98972.53;4947224;28;20047;-78
2023/01/16 02:29:06;;;;;;;0.90;0.30;;;;;;;2.77;98.71;98970.00;4932975;29;20438;-78
2023/01/16 02:32:07;;;;;;;3.38;0.30;;;;;;;2.79;98.64;98966.53;4944703;28;20042;-76
2023/01/16 02:35:17;;;;;;;3.60;0.95;;;;;;;2.80;98.54;98957.94;4927051;28;20125;-78
2023/01/16 02:37:58;;;;;;;1.45;0.50;;;;;;;2.75;98.60;98951.91;4950436;28;20045;-76
2023/01/16 02:40:53;;;;;;;1.20;0.45;;;;;;;2.75;99.46;98951.91;4945794;28;20094;-79
2023/01/16 02:43:47;;;;;;;0.85;0.60;;;;;;;2.86;99.77;98951.00;4913919;28;20051;-78
2023/01/16 02:46:34;;;;;;;1.35;0.77;;;;;;;3.02;99.07;98937.13;4912557;28;20130;-77
2023/01/16 02:49:19;;;;;;;0.93;0.22;;;;;;;3.21;98.57;98919.78;4935757;28;20082;-78
2023/01/16 02:51:59;;;;;;;1.08;0.50;;;;;;;3.31;98.25;98913.66;4933953;29;20039;-75
2023/01/16 02:54:39;;;;;;;4.30;0.95;;;;;;;3.31;98.16;98915.38;4938053;28;20062;-77
2023/01/16 02:57:13;;;;;;;2.67;0.70;;;;;;;3.34;97.70;98910.19;4948372;28;20044;-76
2023/01/16 02:59:42;;;;;;;1.20;0.20;;;;;;;3.42;97.60;98905.81;4939369;28;20074;-77
2023/01/16 03:02:09;;;;;;;0.98;0.70;;;;;;;3.49;97.46;98906.63;4948462;28;20485;-78
2023/01/16 03:04:50;;;;;;;0.93;0.70;;;;;;;3.59;96.77;98902.22;4948667;28;20051;-77
2023/01/16 03:07:51;;;;;;;1.33;0.45;;;;;;;3.70;96.35;98910.72;4927521;28;20047;-77
2023/01/16 03:11:04;;;;;;;3.30;0.40;;;;;;;3.85;96.99;98903.72;4926665;28;20055;-78
2023/01/16 03:14:17;;;;;;;0.47;0.30;;;;;;;3.89;96.84;98893.31;4925002;29;20884;-79
2023/01/16 03:17:23;;;;;;;1.92;0.22;;;;;;;3.78;97.36;98875.31;4935000;28;20058;-79
2023/01/16 03:20:16;;;;;;;0.38;0.30;;;;;;;3.67;98.35;98884.06;4945425;28;20125;-77
2023/01/16 03:23:03;;;;;;;0.47;0.40;;;;;;;3.66;99.55;98871.97;4916932;28;20094;-77
2023/01/16 03:25:51;;;;;;;1.02;0.40;;;;;;;3.72;99.40;98869.34;4940524;28;20051;-76
2023/01/16 03:28:30;;;;;;;2.05;0.30;;;;;;;3.77;99.23;98868.41;4932402;28;21173;-76
2023/01/16 03:31:11;;;;;;;0.95;0.32;;;;;;;3.75;98.78;98859.78;4944544;28;20066;-78
2023/01/16 03:33:47;;;;;;;0.85;0.38;;;;;;;3.62;99.21;98853.03;4946189;28;20035;-76
2023/01/16 03:36:24;;;;;;;1.38;0.40;;;;;;;3.49;100.00;98857.47;4928362;28;20062;-76
2023/01/16 03:38:52;;;;;;;1.50;0.20;;;;;;;3.45;100.00;98853.19;4930638;28;20103;-78
2023/01/16 03:41:24;;;;;;;1.50;0.30;;;;;;;3.38;100.00;98854.13;4926945;28;20050;-77
2023/01/16 03:43:56;;;;;;;2.40;0.20;;;;;;;3.32;100.00;98842.09;4946294;28;20039;-76
2023/01/16 03:46:32;;;;;;;1.42;0.40;;;;;;;3.26;100.00;98845.59;4926397;28;20042;-76
2023/01/16 03:49:13;;;;;;;0.28;0.20;;;;;;;3.20;100.00;98834.47;4944270;28;20047;-79
2023/01/16 03:51:52;;;;;;;1.23;0.30;;;;;;;3.21;100.00;98838.75;4945103;28;20054;-76
2023/01/16 03:54:37;;;;;;;0.40;0.20;;;;;;;3.25;100.00;98830.94;4932253;28;20055;-76
2023/01/16 03:57:15;;;;;;;0.88;0.30;;;;;;;3.27;100.00;98826.63;4918713;28;20442;-78
2023/01/16 03:59:45;;;;;;;1.90;0.30;;;;;;;3.21;100.00;98829.25;4948576;28;20098;-76
2023/01/16 04:02:26;;;;;;;2.75;0.30;;;;;;;3.06;100.00;98825.06;4934022;28;20058;-77
2023/01/16 04:05:01;;;;;;;1.73;0.20;;;;;;;2.93;100.00;98807.94;4927520;29;20474;-77
2023/01/16 04:07:54;;;;;;;2.53;0.43;;;;;;;2.80;100.00;98812.34;4925693;28;20084;-75
2023/01/16 04:10:25;;;;;;;0.55;0.17;;;;;;;2.66;100.00;98815.03;4938607;28;20055;-78
2023/01/16 04:13:00;;;;;;;0.50;0.30;;;;;;;2.65;100.00;98810.72;4936909;28;20061;-77
2023/01/16 04:15:30;;;;;;;1.30;0.20;;;;;;;2.73;100.00;98808.09;4914006;28;20054;-79
2023/01/16 04:17:58;;;;;;;1.95;0.40;;;;;;;2.85;100.00;98801.97;4913018;29;20039;-76
2023/01/16 04:20:27;;;;;;;1.25;0.55;;;;;;;2.97;100.00;98801.88;4940838;28;20042;-76
2023/01/16 04:22:53;;;;;;;0.32;0.32;;;;;;;3.05;100.00;98794.06;4929992;29;20035;-77
2023/01/16 04:25:20;;;;;;;1.98;0.55;;;;;;;3.10;100.00;98800.06;4927353;28;20498;-76
2023/01/16 04:27:48;;;;;;;6.45;0.50;;;;;;;3.04;100.00;98780.28;4930436;29;20652;-76
2023/01/16 04:30:15;;;;;;;2.85;0.40;;;;;;;2.98;100.00;98783.75;4926121;28;20062;-76
2023/01/16 04:32:43;;;;;;;1.13;0.47;;;;;;;2.96;100.00;98775.19;4927682;29;20514;-78
2023/01/16 04:35:10;;;;;;;2.00;0.40;;;;;;;2.96;100.00;98766.59;4945391;28;20050;-80
2023/01/16 04:37:37;;;;;;;1.25;0.40;;;;;;;2.90;100.00;98761.47;4944206;28;20065;-77
2023/01/16 04:40:08;;;;;;;0.25;0.20;;;;;;;2.85;100.00;98756.31;4929558;28;20581;-77
2023/01/16 04:42:35;;;;;;;0.70;0.28;;;;;;;2.89;100.00;98765.75;4931255;29;20039;-77
2023/01/16 04:45:03;;;;;;;0.82;0.38;;;;;;;2.94;100.00;98747.63;4930677;28;20050;-80
2023/01/16 04:47:30;;;;;;;0.28;0.20;;;;;;;2.95;100.00;98742.44;4925583;28;20130;-80
2023/01/16 04:49:56;;;;;;;5.43;1.10;;;;;;;2.82;100.00;98738.25;4944557;28;20058;-76
2023/01/16 04:52:23;;;;;;;0.30;0.30;;;;;;;2.69;100.00;98747.84;4927360;28;20043;-76
2023/01/16 04:54:49;;;;;;;2.83;1.33;;;;;;;2.54;100.00;98737.63;4929922;29;20055;-79
2023/01/16 04:57:16;;;;;;;1.42;0.63;;;;;;;2.47;100.00;98729.91;4927429;28;20069;-76
2023/01/16 04:59:43;;;;;;;1.67;0.25;;;;;;;2.42;100.00;98725.66;4946762;28;20043;-75
2023/01/16 05:02:10;;;;;;;0.80;0.80;;;;;;;2.36;100.00;98726.56;4945608;28;20047;-77
2023/01/16 05:04:37;;;;;;;1.48;0.57;;;;;;;2.41;100.00;98724.81;4937848;29;20039;-77
2023/01/16 05:07:03;;;;;;;1.98;0.20;;;;;;;2.37;100.00;98715.34;4933066;28;20035;-77
2023/01/16 05:09:30;;;;;;;1.38;0.22;;;;;;;2.25;100.00;98715.44;4947453;28;20038;-77
2023/01/16 05:11:56;;;;;;;0.77;0.47;;;;;;;2.15;100.00;98707.75;4937250;29;20035;-77
2023/01/16 05:14:27;;;;;;;1.77;0.32;;;;;;;2.11;100.00;98698.31;4958459;28;20043;-77
2023/01/16 05:16:54;;;;;;;2.72;0.70;;;;;;;2.11;100.00;98707.75;4929221;29;20054;-77
2023/01/16 05:19:20;;;;;;;0.15;0.13;;;;;;;2.14;100.00;98707.78;4957467;29;20050;-75
2023/01/16 05:21:48;;;;;;;1.98;0.30;;;;;;;2.10;100.00;98706.03;4946379;29;20054;-76
2023/01/16 05:24:14;;;;;;;2.53;0.30;;;;;;;2.21;100.00;98708.59;4954101;28;20043;-77
2023/01/16 05:26:41;;;;;;;1.00;0.38;;;;;;;2.36;100.00;98698.16;4935794;29;20047;-76
2023/01/16 05:29:07;;;;;;;0.28;0.28;;;;;;;2.54;100.00;98696.28;4931975;28;20043;-77
2023/01/16 05:31:34;;;;;;;1.02;0.63;;;;;;;2.68;100.00;98691.00;4933211;29;20046;-77
2023/01/16 05:34:01;;;;;;;1.35;0.50;;;;;;;2.79;100.00;98687.47;4931804;28;20051;-77
2023/01/16 05:36:27;;;;;;;3.45;0.88;;;;;;;2.94;100.00;98686.44;4939188;28;20122;-77
2023/01/16 05:38:54;;;;;;;1.40;0.60;;;;;;;3.07;100.00;98678.59;4915629;29;20043;-77
2023/01/16 05:41:21;;;;;;;2.38;0.68;;;;;;;3.16;100.00;98677.66;4944880;28;20050;-78
2023/01/16 05:43:47;;;;;;;1.88;0.60;;;;;;;3.17;100.00;98672.44;4944351;28;20411;-78
2023/01/16 05:46:15;;;;;;;3.55;0.95;;;;;;;3.09;100.00;98667.34;4933235;28;20757;-78
2023/01/16 05:48:41;;;;;;;2.28;0.50;;;;;;;2.97;100.00;98660.59;4932320;29;20771;-76
2023/01/16 05:51:08;;;;;;;0.57;0.57;;;;;;;2.91;100.00;98652.06;4926213;28;20045;-77
2023/01/16 05:53:34;;;;;;;0.68;0.55;;;;;;;2.91;100.00;98652.06;4928502;29;20043;-78
2023/01/16 05:56:11;;;;;;;5.78;0.52;;;;;;;2.94;100.00;98652.84;4927286;28;20043;-76
2023/01/16 05:58:38;;;;;;;2.92;0.50;;;;;;;2.97;100.00;98654.53;4943510;28;20050;-78
2023/01/16 06:01:05;;;;;;;5.50;0.80;;;;;;;2.98;100.00;98651.09;4918584;28;20039;-79
2023/01/16 06:03:32;;;;;;;4.50;2.05;;;;;;;3.00;100.00;98651.06;4929008;29;20046;-78
2023/01/16 06:06:00;;;;;;;0.57;0.35;;;;;;;2.97;100.00;98639.91;4949040;28;20038;-77
2023/01/16 06:08:27;;;;;;;1.27;0.45;;;;;;;3.01;100.00;98640.72;4946812;28;20027;-78
2023/01/16 06:10:53;;;;;;;0.50;0.32;;;;;;;3.07;100.00;98630.31;4929895;29;20055;-77
2023/01/16 06:13:20;;;;;;;0.85;0.82;;;;;;;3.09;100.00;98630.28;4933595;28;20114;-78
2023/01/16 06:15:46;;;;;;;0.30;0.20;;;;;;;3.13;100.00;98625.09;4916696;29;20461;-76
2023/01/16 06:18:14;;;;;;;0.70;0.30;;;;;;;3.07;100.00;98617.38;4947116;28;20061;-77
2023/01/16 06:20:41;;;;;;;0.93;0.30;;;;;;;2.93;100.00;98617.56;4945600;28;20043;-78
2023/01/16 06:23:08;;;;;;;0.90;0.30;;;;;;;2.86;100.00;98613.31;4925558;28;20049;-77
2023/01/16 06:25:35;;;;;;;2.55;0.30;;;;;;;2.82;100.00;98616.81;4943383;28;20497;-78
2023/01/16 06:28:01;;;;;;;2.17;0.30;;;;;;;2.84;100.00;98615.03;4927250;28;20160;-78
2023/01/16 06:30:28;;;;;;;0.10;0.10;;;;;;;2.91;100.00;98608.13;4944052;28;20046;-77
2023/01/16 06:32:55;;;;;;;0.10;0.10;;;;;;;2.98;100.00;98599.41;4926967;29;20039;-80
2023/01/16 06:35:21;;;;;;;2.22;0.50;;;;;;;3.03;100.00;98599.38;4936787;28;20031;-78
2023/01/16 06:37:48;;;;;;;2.10;0.35;;;;;;;3.07;100.00;98588.94;4946222;28;20115;-79
2023/01/16 06:40:15;;;;;;;2.97;0.70;;;;;;;3.12;100.00;98588.91;4929179;28;20043;-78
2023/01/16 06:42:42;;;;;;;1.80;0.57;;;;;;;3.10;100.00;98583.75;4945070;28;20144;-77
2023/01/16 06:45:12;;;;;;;2.05;0.63;;;;;;;3.11;100.00;98575.13;4913817;29;20043;-80
2023/01/16 06:47:38;;;;;;;1.75;0.68;;;;;;;3.08;100.00;98576.91;4946945;28;20107;-77
2023/01/16 06:50:06;;;;;;;4.20;0.32;;;;;;;3.00;100.00;98574.41;4931239;28;20043;-78
2023/01/16 06:52:34;;;;;;;0.55;0.38;;;;;;;2.85;100.00;98565.09;4947122;29;20043;-79
2023/01/16 06:55:04;;;;;;;0.30;0.10;;;;;;;2.67;100.00;98566.13;4944007;28;20062;-77
2023/01/16 06:57:35;;;;;;;0.68;0.25;;;;;;;2.58;100.00;98558.50;4936719;29;20062;-78
2023/01/16 07:00:01;;;;;;;0.52;0.30;;;;;;;2.55;100.00;98555.94;4951499;28;20031;-79
2023/01/16 07:02:28;;;;;;;1.02;0.50;;;;;;;2.56;100.00;98553.34;4934470;29;20039;-78
2023/01/16 07:04:55;;;;;;;0.98;0.98;;;;;;;2.51;100.00;98556.84;4954149;28;20114;-78
2023/01/16 07:07:24;;;;;;;0.32;0.32;;;;;;;2.37;100.00;98552.66;4952833;28;20525;-77
2023/01/16 07:09:51;;;;;;;3.40;0.70;;;;;;;2.30;100.00;98546.69;4952114;28;20047;-76
2023/01/16 07:12:17;;;;;;;2.83;0.70;;;;;;;2.38;100.00;98546.63;4937075;29;20129;-76
2023/01/16 07:22:56;;;;;;;0.65;0.55;;;;;;;2.86;100.00;98542.69;4934852;29;20131;-78
2023/01/16 07:25:34;;;;;;;1.23;0.90;;;;;;;2.80;100.00;98528.97;4933185;29;20471;-77
2023/01/16 07:28:01;;;;;;;2.47;0.60;;;;;;;2.72;100.00;98523.03;4934768;29;20047;-78
2023/01/16 07:30:28;;;;;;;2.20;0.85;;;;;;;2.66;100.00;98520.53;4935337;29;20047;-76
2023/01/16 07:32:54;;;;;;;5.55;0.88;;;;;;;2.63;100.00;98503.34;4922013;29;20382;-76
2023/01/16 07:35:21;;;;;;;5.95;2.60;;;;;;;2.66;100.00;98497.28;4919957;29;20085;-76
2023/01/16 07:37:47;;;;;;;0.70;0.70;;;;;;;2.71;100.00;98499.78;4918082;29;20098;-79
2023/01/16 07:40:14;;;;;;;1.63;1.15;;;;;;;2.69;100.00;98493.81;4937741;28;20038;-78
2023/01/16 07:42:41;;;;;;;0.90;0.75;;;;;;;2.59;100.00;98485.31;4952904;29;20035;-77
2023/01/16 07:45:08;;;;;;;1.40;0.52;;;;;;;2.50;100.00;98485.41;4937582;28;20035;-78
2023/01/16 07:47:35;;;;;;;3.25;1.05;;;;;;;2.49;100.00;98481.97;4933217;29;20035;-77
2023/01/16 07:50:02;;;;;;;1.20;0.88;;;;;;;2.45;100.00;98475.13;4947533;28;20123;-79
2023/01/16 07:52:28;;;;;;;2.83;1.20;;;;;;;2.48;100.00;98475.09;4932862;29;20110;-78
2023/01/16 07:54:55;;;;;;;2.33;0.73;;;;;;;2.53;100.00;98482.78;4931513;29;20078;-81
2023/01/16 07:57:22;;;;;;;3.33;1.35;;;;;;;2.56;100.00;98473.28;4931593;28;20115;-76
2023/01/16 07:59:51;;;;;;;0.85;0.50;;;;;;;2.70;100.00;98467.09;4931549;29;20054;-78
2023/01/16 08:02:18;;;;;;;2.67;0.93;;;;;;;2.85;100.00;98466.03;4930324;28;20066;-77
2023/01/16 08:04:44;;;;;;;6.45;1.30;;;;;;;2.92;100.00;98457.31;4932638;29;20125;-77
2023/01/16 08:07:11;;;;;;;5.82;1.95;;;;;;;3.00;100.00;98460.69;4946194;28;20107;-77
2023/01/16 08:09:38;;;;;;;1.33;0.70;;;;;;;3.08;100.00;98445.06;4933494;29;20047;-77
2023/01/16 08:12:05;;;;;;;2.85;0.85;;;;;;;3.17;100.00;98442.34;4946144;28;20426;-77
2023/01/16 08:14:31;;;;;;;3.08;0.75;;;;;;;3.28;100.00;98431.84;4947343;28;20482;-81
2023/01/16 08:16:58;;;;;;;4.78;0.98;;;;;;;3.33;100.00;98430.03;4948269;28;20043;-77
2023/01/16 08:19:24;;;;;;;0.77;0.60;;;;;;;3.36;100.00;98422.22;4934221;29;20466;-78
2023/01/16 08:21:51;;;;;;;2.05;1.05;;;;;;;3.37;100.00;98428.25;4931108;29;20039;-78
2023/01/16 08:24:18;;;;;;;1.15;0.45;;;;;;;3.41;100.00;98419.56;4915400;28;20094;-77
2023/01/16 08:26:45;;;;;;;0.85;0.75;;;;;;;3.44;100.00;98404.88;4926730;29;20039;-76
2023/01/16 08:29:12;;;;;;;2.83;0.68;;;;;;;3.53;100.00;98403.84;4947098;28;20054;-78
2023/01/16 08:31:38;;;;;;;6.25;1.52;;;;;;;3.58;100.00;98404.63;4929603;29;20802;-79
2023/01/16 08:34:05;;;;;;;1.10;0.57;;;;;;;3.67;100.00;98388.09;4930536;28;20608;-78
2023/01/16 08:36:31;;;;;;;1.55;0.80;;;;;;;3.78;100.00;98393.06;4933109;29;20051;-80
2023/01/16 08:38:58;;;;;;;1.45;0.50;;;;;;;3.89;100.00;98390.31;4948750;28;20036;-79
2023/01/16 08:52:34;;;;;;;1.45;1.08;;;;;;;4.22;96.97;98373.25;4932577;28;20525;-77
2023/01/16 08:55:01;;;;;;;1.60;0.60;;;;;;;4.28;97.05;98377.47;4925114;28;20083;-77
2023/01/16 08:57:29;;;;;;;1.55;0.85;;;;;;;4.27;96.83;98358.47;4946358;28;20074;-76
2023/01/16 08:59:57;;;;;;;2.47;0.70;;;;;;;4.29;96.36;98361.91;4929110;29;20130;-78
2023/01/16 09:02:26;;;;;;;6.97;2.65;;;;;;;4.34;95.88;98360.94;4947930;28;20067;-78
2023/01/16 09:04:54;;;;;;;1.08;0.45;;;;;;;4.35;94.83;98354.88;4946616;28;20032;-77
2023/01/16 09:07:20;;;;;;;1.75;1.05;;;;;;;4.40;94.77;98353.06;4913435;28;21147;-79
2023/01/16 09:09:47;;;;;;;4.07;1.42;;;;;;;4.44;93.85;98342.56;4929922;29;20077;-77
2023/01/16 09:15:01;;;;;;;2.00;1.20;;;;;;;4.42;93.88;98344.38;4936386;28;20066;-80
2023/01/16 09:17:28;;;;;;;3.45;0.60;;;;;;;4.41;93.52;98340.06;4928739;29;20114;-77
2023/01/16 09:19:55;;;;;;;1.98;1.10;;;;;;;4.40;94.34;98334.91;4921330;29;20102;-80
2023/01/16 09:22:21;;;;;;;4.43;0.88;;;;;;;4.43;94.26;98335.72;4930581;28;20039;-78
2023/01/16 09:24:48;;;;;;;3.40;1.20;;;;;;;4.46;94.04;98334.81;4928050;29;20541;-78
2023/01/16 09:27:18;;;;;;;0.68;0.35;;;;;;;4.45;93.77;98327.91;4929618;28;20039;-77
2023/01/16 09:29:44;;;;;;;2.45;0.85;;;;;;;4.42;94.14;98317.59;4930211;29;20039;-78
2023/01/16 09:32:11;;;;;;;1.50;0.70;;;;;;;4.42;94.04;98309.81;4925619;28;20101;-77
2023/01/16 09:34:39;;;;;;;6.18;1.30;;;;;;;4.42;94.24;98308.09;4930924;29;20042;-77
2023/01/16 09:37:06;;;;;;;1.35;0.45;;;;;;;4.41;93.11;98298.63;4944707;28;20047;-79
2023/01/16 09:39:34;;;;;;;1.05;0.70;;;;;;;4.41;93.08;98300.38;4944160;28;20047;-77
2023/01/16 09:45:25;;;;;;;1.90;0.50;;;;;;;4.42;92.47;98283.91;4915580;28;20088;-78
2023/01/16 09:47:59;;;;;;;3.15;0.63;;;;;;;4.46;91.55;98273.47;4910153;29;20726;-78
2023/01/16 09:50:50;;;;;;;1.98;0.55;;;;;;;4.52;91.16;98267.28;4931848;29;20474;-77
2023/01/16 09:59:30;;;;;;;3.95;0.60;;;;;;;4.58;89.56;98249.00;4937049;29;20162;-77
2023/01/16 10:02:08;;;;;;;1.75;0.45;;;;;;;4.60;89.32;98256.75;4942048;29;20134;-77
2023/01/16 10:04:36;;;;;;;1.85;0.38;;;;;;;4.61;89.47;98232.53;4938294;28;20523;-77
2023/01/16 10:07:32;;;;;;;2.13;0.35;;;;;;;4.68;88.85;98228.06;4929531;28;20051;-79
2023/01/16 10:10:29;;;;;;;1.05;0.40;;;;;;;4.70;88.73;98213.34;4946524;28;20046;-76
2023/01/16 10:13:29;;;;;;;1.58;0.65;;;;;;;4.73;88.78;98205.47;4921801;29;20052;-80
2023/01/16 10:16:16;;;;;;;1.85;0.82;;;;;;;4.78;88.60;98191.53;4945703;28;20055;-78
2023/01/16 10:19:17;;;;;;;0.82;0.47;;;;;;;4.85;88.30;98180.97;4944675;28;20047;-77
2023/01/16 10:22:14;;;;;;;2.88;0.60;;;;;;;4.90;87.92;98161.84;4920358;29;20782;-77
2023/01/16 10:25:12;;;;;;;11.88;0.75;;;;;;;5.03;86.67;98164.97;4942680;28;20047;-78
2023/01/16 10:28:09;;;;;;;3.90;0.57;;;;;;;5.11;85.91;98155.22;4942749;28;20062;-80
2023/01/16 10:30:48;;;;;;;3.30;1.02;;;;;;;5.21;85.45;98142.00;4929523;28;20039;-79
2023/01/16 10:33:45;;;;;;;1.00;0.28;;;;;;;5.34;84.54;98130.41;4940873;28;20096;-80
2023/01/16 10:36:16;;;;;;;1.25;0.38;;;;;;;5.51;83.50;98122.13;4937319;28;20039;-76
2023/01/16 10:38:55;;;;;;;1.55;0.90;;;;;;;5.61;82.92;98120.97;4932055;29;20039;-79
2023/01/16 10:50:14;;;;;;;1.15;0.63;;;;;;;5.43;82.50;98086.03;4944601;28;20035;-78
2023/01/16 10:52:41;;;;;;;4.00;0.40;;;;;;;5.45;83.00;98080.81;4913771;29;20039;-80
2023/01/16 10:55:10;;;;;;;1.85;0.55;;;;;;;5.44;82.42;98079.09;4941114;28;20052;-80
2023/01/16 10:58:12;;;;;;;2.95;0.57;;;;;;;5.44;82.97;98069.56;4927655;29;20520;-78
2023/01/16 11:00:44;;;;;;;2.45;0.43;;;;;;;5.37;82.25;98068.06;4924289;29;20414;-77
2023/01/16 11:03:41;;;;;;;2.67;0.70;;;;;;;5.29;82.98;98055.31;4911002;29;20047;-78
2023/01/16 11:06:30;;;;;;;0.45;0.45;;;;;;;5.24;83.23;98045.94;4936073;28;20130;-79
2023/01/16 11:09:08;;;;;;;2.40;0.80;;;;;;;5.16;83.23;98048.75;4927095;29;20046;-79
2023/01/16 11:20:19;;;;;;;0.35;0.30;;;;;;;5.17;82.77;98003.78;4927276;29;20042;-76
2023/01/16 11:22:57;;;;;;;1.55;0.35;;;;;;;5.21;82.38;97987.22;4928637;29;20043;-77
2023/01/16 11:25:24;;;;;;;1.25;0.30;;;;;;;5.24;81.98;97983.69;4931463;29;20043;-76
2023/01/16 11:27:52;;;;;;;1.27;0.40;;;;;;;5.27;81.93;97983.63;4928922;29;20074;-75
2023/01/16 11:30:22;;;;;;;2.17;0.50;;;;;;;5.28;81.67;97970.59;4927188;29;20054;-76
2023/01/16 11:32:50;;;;;;;4.90;0.68;;;;;;;5.32;81.23;97970.50;4912274;29;20064;-76
2023/01/16 11:35:18;;;;;;;0.93;0.40;;;;;;;5.32;80.48;97967.91;4927438;29;20378;-78
2023/01/16 11:37:50;;;;;;;1.55;0.55;;;;;;;5.32;80.91;97965.31;4927156;29;20071;-76
2023/01/16 11:40:26;;;;;;;2.35;0.47;;;;;;;5.36;80.57;97959.13;4943110;28;20118;-78
2023/01/16 11:46:07;;;;;;;2.40;0.50;;;;;;;5.40;79.14;97952.97;4926123;29;20059;-80
2023/01/16 11:48:44;;;;;;;3.58;0.50;;;;;;;5.35;78.26;97937.53;4928128;29;20132;-77
2023/01/16 11:51:21;;;;;;;0.52;0.30;;;;;;;5.36;78.20;97933.19;4925776;29;20140;-77
2023/01/16 11:53:50;;;;;;;3.03;0.40;;;;;;;5.42;78.45;97927.81;4940814;28;20939;-78
2023/01/16 11:56:32;;;;;;;0.75;0.40;;;;;;;5.44;77.37;97923.44;4926198;29;20044;-76
2023/01/16 11:59:25;;;;;;;1.65;0.50;;;;;;;5.46;77.06;97913.84;4926359;29;20059;-81
2023/01/16 12:02:32;;;;;;;1.58;0.50;;;;;;;5.55;76.95;97910.09;4924296;29;20048;-79
2023/01/16 12:08:20;;;;;;;1.25;0.35;;;;;;;5.61;76.55;97891.75;4910264;29;20060;-77
2023/01/16 12:11:05;;;;;;;2.75;0.32;;;;;;;5.63;76.51;97896.00;4926132;29;20127;-77
2023/01/16 12:17:11;;;;;;;3.85;0.85;;;;;;;5.72;75.99;97868.88;4942799;29;20105;-77
2023/01/16 12:20:14;;;;;;;2.92;0.95;;;;;;;5.75;75.83;97863.56;4928734;29;20058;-77
2023/01/16 12:23:05;;;;;;;1.83;0.82;;;;;;;5.86;75.84;97859.75;4928246;29;20051;-79
2023/01/16 12:25:56;;;;;;;1.40;0.40;;;;;;;5.99;75.08;97860.22;4919763;29;20059;-77
2023/01/16 12:29:21;;;;;;;1.70;0.32;;;;;;;5.94;74.25;97847.34;4928119;29;20111;-77
2023/01/16 12:32:00;;;;;;;1.70;0.40;;;;;;;5.92;74.91;97837.03;4896083;29;20067;-77
2023/01/16 12:34:45;;;;;;;2.05;0.50;;;;;;;5.92;74.85;97834.44;4922645;29;21004;-78
2023/01/16 12:37:48;;;;;;;1.65;0.60;;;;;;;5.91;74.95;97822.34;4932052;29;20063;-77
2023/01/16 12:44:17;;;;;;;0.43;0.40;;;;;;;6.04;74.85;97795.97;4927160;29;20052;-77
2023/01/16 12:47:14;;;;;;;1.08;0.40;;;;;;;6.09;74.70;97794.91;4928713;29;20122;-77
2023/01/16 12:50:48;;;;;;;3.03;1.02;;;;;;;6.17;74.92;97778.19;4922654;29;20086;-80
2023/01/16 12:53:59;;;;;;;5.47;0.63;;;;;;;6.24;74.83;97790.03;4906203;29;20064;-78
2023/01/16 12:56:59;;;;;;;2.15;0.32;;;;;;;6.33;74.56;97773.25;4930367;29;20043;-76
2023/01/16 12:59:34;;;;;;;2.08;0.60;;;;;;;6.44;74.26;97766.75;4930777;29;20095;-77
2023/01/16 13:02:21;;;;;;;1.60;0.60;;;;;;;6.50;73.98;97767.41;4942592;28;20053;-78
2023/01/16 13:05:17;;;;;;;1.85;0.30;;;;;;;6.50;74.10;97755.25;4937163;28;20075;-77
2023/01/16 13:08:15;;;;;;;1.15;0.40;;;;;;;6.63;73.95;97753.03;4925322;29;20044;-77
2023/01/16 13:13:43;;;;;;;0.75;0.40;;;;;;;6.60;74.02;97733.19;4923684;29;20115;-78
2023/01/16 13:16:23;;;;;;;3.00;0.60;;;;;;;6.62;74.25;97731.41;4925376;29;20110;-77
2023/01/16 13:19:03;;;;;;;1.33;0.50;;;;;;;6.58;74.14;97728.97;4907353;29;20412;-77